createdAt,value
2018-11-01T00:01:05.380Z,5.43
2018-11-01T00:03:34.327Z,6.30
2018-11-01T00:06:02.882Z,5.03
2018-11-01T00:08:31.425Z,5.67
2018-11-01T00:10:59.917Z,5.00
2018-11-01T00:13:28.388Z,5.37
2018-11-01T00:15:56.930Z,4.90
2018-11-01T00:18:25.444Z,5.53
2018-11-01T00:20:53.969Z,6.10
2018-11-01T00:23:22.781Z,5.93
2018-11-01T00:25:51.282Z,5.37
2018-11-01T00:28:19.855Z,5.23
2018-11-01T00:30:48.407Z,5.30
2018-11-01T00:33:16.942Z,5.13
2018-11-01T00:35:45.553Z,6.00
2018-11-01T00:38:14.121Z,5.50
2018-11-01T00:40:42.631Z,6.00
2018-11-01T00:43:11.162Z,5.30
2018-11-01T00:45:39.734Z,4.60
2018-11-01T00:48:08.225Z,5.03
2018-11-01T00:50:36.731Z,4.60
2018-11-01T00:53:05.242Z,4.20
2018-11-01T00:55:33.766Z,5.27
2018-11-01T00:58:02.373Z,5.20
2018-11-01T01:00:30.989Z,4.80
2018-11-01T01:02:59.529Z,5.60
2018-11-01T01:05:28.110Z,5.20
2018-11-01T01:07:56.691Z,6.00
2018-11-01T01:10:25.173Z,6.10
2018-11-01T01:12:53.686Z,5.20
2018-11-01T01:15:22.173Z,6.30
2018-11-01T01:17:50.679Z,5.17
2018-11-01T01:20:19.225Z,5.23
2018-11-01T01:22:48.255Z,5.90
2018-11-01T01:25:18.830Z,5.80
2018-11-01T01:27:47.668Z,5.47
2018-11-01T01:30:19.144Z,5.90
2018-11-01T01:32:48.137Z,5.97
2018-11-01T01:35:16.897Z,6.20
2018-11-01T01:37:45.713Z,6.70
2018-11-01T01:40:14.253Z,6.07
2018-11-01T01:42:48.093Z,6.20
2018-11-01T01:45:16.677Z,6.67
2018-11-01T01:47:45.193Z,5.80
2018-11-01T01:50:15.071Z,7.17
2018-11-01T01:52:44.375Z,6.60
2018-11-01T01:55:12.977Z,6.80
2018-11-01T01:57:41.505Z,6.60
2018-11-01T02:00:12.593Z,6.13
2018-11-01T02:02:45.544Z,6.27
2018-11-01T02:05:14.107Z,6.90
2018-11-01T02:07:42.709Z,7.60
2018-11-01T02:10:13.940Z,6.03
2018-11-01T02:12:42.498Z,6.70
2018-11-01T02:15:13.325Z,6.20
2018-11-01T02:17:42.449Z,6.10
2018-11-01T02:20:12.635Z,6.90
2018-11-01T02:22:41.825Z,6.33
2018-11-01T02:25:10.643Z,6.27
2018-11-01T02:27:44.524Z,6.77
2018-11-01T02:30:14.255Z,6.50
2018-11-01T02:32:43.502Z,6.30
2018-11-01T02:35:13.394Z,5.83
2018-11-01T02:37:42.241Z,6.03
2018-11-01T02:40:11.318Z,6.20
2018-11-01T02:42:40.387Z,6.90
2018-11-01T02:45:09.714Z,5.90
2018-11-01T02:47:38.513Z,5.40
2018-11-01T02:50:07.646Z,6.37
2018-11-01T02:52:36.211Z,6.03
2018-11-01T02:55:05.174Z,5.33
2018-11-01T02:57:33.667Z,5.60
2018-11-01T03:00:02.171Z,5.50
2018-11-01T03:02:30.937Z,5.10
2018-11-01T03:04:59.529Z,4.80
2018-11-01T03:07:28.092Z,5.30
2018-11-01T03:09:56.695Z,5.07
2018-11-01T03:12:25.218Z,5.27
2018-11-01T03:14:53.758Z,4.90
2018-11-01T03:17:22.334Z,4.87
2018-11-01T03:19:50.822Z,4.90
2018-11-01T03:22:19.329Z,4.90
2018-11-01T03:24:47.863Z,4.70
2018-11-01T03:27:16.350Z,5.00
2018-11-01T03:29:44.854Z,5.30
2018-11-01T03:32:13.397Z,4.87
2018-11-01T03:34:41.883Z,4.83
2018-11-01T03:37:10.430Z,5.03
2018-11-01T03:39:38.894Z,4.83
2018-11-01T03:42:07.414Z,4.90
2018-11-01T03:44:35.961Z,4.93
2018-11-01T03:47:04.445Z,4.87
2018-11-01T03:49:32.979Z,4.83
2018-11-01T03:52:01.582Z,5.00
2018-11-01T03:54:30.143Z,4.40
2018-11-01T03:56:58.705Z,4.53
2018-11-01T03:59:27.171Z,4.80
2018-11-01T04:01:55.697Z,4.57
2018-11-01T04:04:24.185Z,4.33
2018-11-01T04:06:52.693Z,4.73
2018-11-01T04:09:21.210Z,4.20
2018-11-01T04:11:49.753Z,4.43
2018-11-01T04:14:18.213Z,4.50
2018-11-01T04:16:46.764Z,4.30
2018-11-01T04:19:15.292Z,4.30
2018-11-01T04:21:43.790Z,4.47
2018-11-01T04:24:12.470Z,3.80
2018-11-01T04:26:40.973Z,3.77
2018-11-01T04:29:09.558Z,4.03
2018-11-01T04:31:38.054Z,4.20
2018-11-01T04:34:06.585Z,4.27
2018-11-01T04:36:35.110Z,4.37
2018-11-01T04:39:04.141Z,4.20
2018-11-01T04:41:32.635Z,4.00
2018-11-01T04:44:01.184Z,4.17
2018-11-01T04:46:29.758Z,3.90
2018-11-01T04:48:58.303Z,3.87
2018-11-01T04:51:26.761Z,4.40
2018-11-01T04:53:55.246Z,4.10
2018-11-01T04:56:23.759Z,4.20
2018-11-01T04:58:52.415Z,4.40
2018-11-01T05:01:22.329Z,4.40
2018-11-01T05:03:52.801Z,4.07
2018-11-01T05:06:21.730Z,4.27
2018-11-01T05:08:50.335Z,4.23
2018-11-01T05:11:19.259Z,4.43
2018-11-01T05:13:48.445Z,4.97
2018-11-01T05:16:17.013Z,6.50
2018-11-01T05:18:46.072Z,4.20
2018-11-01T05:21:15.074Z,4.63
2018-11-01T05:23:43.581Z,4.53
2018-11-01T05:26:12.074Z,4.20
2018-11-01T05:28:40.643Z,5.10
2018-11-01T05:31:09.154Z,4.03
2018-11-01T05:33:37.691Z,4.47
2018-11-01T05:36:06.382Z,4.17
2018-11-01T05:38:34.950Z,4.90
2018-11-01T05:41:03.462Z,4.70
2018-11-01T05:43:31.991Z,4.70
2018-11-01T05:46:00.476Z,4.70
2018-11-01T05:48:29.050Z,5.20
2018-11-01T05:50:57.550Z,4.60
2018-11-01T05:53:26.034Z,4.63
2018-11-01T05:55:54.553Z,4.70
2018-11-01T05:58:23.012Z,4.20
2018-11-01T06:00:51.612Z,5.40
2018-11-01T06:04:44.747Z,5.13
2018-11-01T06:07:13.357Z,4.80
2018-11-01T06:09:41.858Z,5.30
2018-11-01T06:12:10.436Z,4.57
2018-11-01T06:14:39.026Z,4.33
2018-11-01T06:17:07.564Z,5.20
2018-11-01T06:19:36.115Z,4.43
2018-11-01T06:22:04.714Z,4.83
2018-11-01T06:24:33.237Z,5.27
2018-11-01T06:27:01.754Z,4.50
2018-11-01T06:29:30.282Z,5.13
2018-11-01T06:31:58.807Z,4.33
2018-11-01T06:34:39.533Z,4.63
2018-11-01T06:37:08.022Z,4.53
2018-11-01T06:39:36.513Z,4.27
2018-11-01T06:42:05.038Z,4.90
2018-11-01T06:44:33.601Z,4.30
2018-11-01T06:47:02.178Z,5.03
2018-11-01T06:49:30.758Z,4.87
2018-11-01T06:51:59.229Z,4.90
2018-11-01T06:54:27.969Z,5.47
2018-11-01T06:56:56.483Z,4.77
2018-11-01T06:59:25.137Z,5.37
2018-11-01T07:01:53.566Z,5.37
2018-11-01T07:04:22.179Z,5.07
2018-11-01T07:06:50.687Z,5.33
2018-11-01T07:09:19.183Z,4.70
2018-11-01T07:11:47.765Z,5.07
2018-11-01T07:14:16.332Z,5.03
2018-11-01T07:16:44.813Z,5.63
2018-11-01T07:19:13.370Z,4.50
2018-11-01T07:21:41.946Z,4.63
2018-11-01T07:24:10.426Z,5.20
2018-11-01T07:26:38.938Z,5.17
2018-11-01T07:29:07.532Z,5.30
2018-11-01T07:31:36.058Z,5.50
2018-11-01T07:34:04.643Z,4.93
2018-11-01T07:36:33.290Z,4.90
2018-11-01T07:39:01.841Z,5.23
2018-11-01T07:41:30.416Z,4.80
2018-11-01T07:43:58.969Z,4.67
2018-11-01T07:46:27.527Z,4.70
2018-11-01T07:48:56.069Z,5.00
2018-11-01T07:51:24.775Z,4.57
2018-11-01T07:53:53.355Z,4.10
2018-11-01T07:56:22.052Z,4.60
2018-11-01T07:58:50.542Z,4.67
2018-11-01T08:01:19.105Z,4.83
2018-11-01T08:03:47.670Z,4.70
2018-11-01T08:06:16.194Z,5.40
2018-11-01T08:08:44.714Z,4.57
2018-11-01T08:11:13.249Z,4.40
2018-11-01T08:13:41.769Z,4.50
2018-11-01T08:16:10.317Z,4.50
2018-11-01T08:18:39.084Z,4.60
2018-11-01T08:21:07.814Z,4.60
2018-11-01T08:23:36.313Z,5.23
2018-11-01T08:26:04.932Z,5.33
2018-11-01T08:28:33.498Z,4.53
2018-11-01T08:31:02.016Z,5.13
2018-11-01T08:33:30.526Z,5.23
2018-11-01T08:35:59.055Z,4.43
2018-11-01T08:38:27.558Z,4.30
2018-11-01T08:40:56.204Z,4.63
2018-11-01T08:43:24.653Z,4.50
2018-11-01T08:45:53.146Z,4.90
2018-11-01T08:48:21.694Z,4.77
2018-11-01T08:50:50.180Z,4.00
2018-11-01T08:53:18.698Z,4.07
2018-11-01T08:55:47.241Z,4.17
2018-11-01T08:58:15.750Z,4.40
2018-11-01T09:00:44.333Z,4.08
2018-11-01T09:03:12.873Z,4.00
2018-11-01T09:05:41.387Z,3.87
2018-11-01T09:08:10.019Z,3.47
2018-11-01T09:10:38.690Z,3.70
2018-11-01T09:13:07.165Z,3.23
2018-11-01T09:15:35.713Z,3.40
2018-11-01T09:18:04.189Z,2.90
2018-11-01T09:20:32.758Z,3.30
2018-11-01T09:23:01.346Z,3.57
2018-11-01T09:25:29.898Z,3.40
2018-11-01T09:27:58.501Z,3.60
2018-11-01T09:30:26.981Z,4.50
2018-11-01T09:32:55.512Z,3.67
2018-11-01T09:35:24.176Z,3.70
2018-11-01T09:37:52.670Z,3.97
2018-11-01T09:40:21.209Z,3.42
2018-11-01T09:42:49.712Z,3.90
2018-11-01T09:45:18.202Z,3.70
2018-11-01T09:47:46.901Z,3.80
2018-11-01T09:50:15.373Z,3.40
2018-11-01T09:52:43.890Z,3.73
2018-11-01T09:55:12.443Z,4.30
2018-11-01T09:57:40.953Z,4.17
2018-11-01T10:00:12.166Z,4.47
2018-11-01T10:02:40.785Z,4.17
2018-11-01T10:05:09.969Z,3.50
2018-11-01T10:07:38.910Z,3.87
2018-11-01T10:10:10.490Z,3.72
2018-11-01T10:12:39.548Z,3.83
2018-11-01T10:15:09.542Z,4.15
2018-11-01T10:17:38.344Z,4.27
2018-11-01T10:20:08.834Z,4.00
2018-11-01T10:22:37.445Z,5.27
2018-11-01T10:25:07.005Z,5.10
2018-11-01T10:27:35.608Z,5.13
2018-11-01T10:30:04.195Z,5.20
2018-11-01T10:32:32.779Z,4.90
2018-11-01T10:35:01.251Z,5.37
2018-11-01T10:37:29.887Z,4.77
2018-11-01T10:39:58.397Z,4.73
2018-11-01T10:42:26.901Z,5.47
2018-11-01T10:44:55.492Z,5.07
2018-11-01T10:47:24.101Z,4.90
2018-11-01T10:49:52.674Z,5.47
2018-11-01T10:52:21.238Z,5.73
2018-11-01T10:54:49.773Z,4.90
2018-11-01T10:57:18.282Z,5.17
2018-11-01T10:59:46.859Z,5.00
2018-11-01T11:02:15.358Z,5.53
2018-11-01T11:04:43.918Z,4.60
2018-11-01T11:07:12.548Z,5.30
2018-11-01T11:09:41.065Z,5.27
2018-11-01T11:12:09.666Z,4.83
2018-11-01T11:14:38.238Z,5.53
2018-11-01T11:17:06.761Z,5.40
2018-11-01T11:19:35.337Z,4.70
2018-11-01T11:22:03.884Z,5.40
2018-11-01T11:24:32.444Z,5.30
2018-11-01T11:27:01.030Z,5.70
2018-11-01T11:29:29.566Z,5.27
2018-11-01T11:31:58.191Z,5.10
2018-11-01T11:34:26.817Z,4.90
2018-11-01T11:36:55.370Z,4.67
2018-11-01T11:39:23.911Z,5.67
2018-11-01T11:41:52.529Z,6.80
2018-11-01T11:44:21.067Z,6.23
2018-11-01T11:46:49.569Z,5.67
2018-11-01T11:49:18.171Z,6.13
2018-11-01T11:51:46.686Z,6.23
2018-11-01T11:54:15.217Z,5.40
2018-11-01T11:56:43.828Z,6.07
2018-11-01T11:59:12.343Z,5.90
2018-11-01T12:01:40.888Z,5.87
2018-11-01T12:04:09.533Z,5.40
2018-11-01T12:06:38.051Z,5.70
2018-11-01T12:09:07.918Z,5.40
2018-11-01T12:11:36.501Z,6.00
2018-11-01T12:14:05.161Z,5.40
2018-11-01T12:16:33.712Z,5.50
2018-11-01T12:19:02.289Z,5.67
2018-11-01T12:21:30.839Z,5.50
2018-11-01T12:23:59.392Z,5.43
2018-11-01T12:26:27.925Z,5.23
2018-11-01T12:28:56.470Z,5.97
2018-11-01T12:31:25.039Z,5.20
2018-11-01T12:33:53.555Z,5.43
2018-11-01T12:36:22.055Z,5.73
2018-11-01T12:38:50.606Z,5.90
2018-11-01T12:41:19.298Z,6.90
2018-11-01T12:43:47.757Z,5.80
2018-11-01T12:46:16.306Z,5.92
2018-11-01T12:48:44.860Z,5.77
2018-11-01T12:51:13.345Z,5.97
2018-11-01T12:53:41.917Z,6.27
2018-11-01T12:56:10.766Z,6.37
2018-11-01T12:58:39.284Z,6.43
2018-11-01T13:01:07.870Z,6.10
2018-11-01T13:03:36.408Z,5.97
2018-11-01T13:06:05.049Z,5.70
2018-11-01T13:08:33.666Z,5.83
2018-11-01T13:11:02.209Z,6.60
2018-11-01T13:13:30.778Z,6.37
2018-11-01T13:15:59.271Z,5.80
2018-11-01T13:18:27.905Z,6.00
2018-11-01T13:20:56.412Z,7.73
2018-11-01T13:23:24.963Z,6.23
2018-11-01T13:25:53.625Z,6.37
2018-11-01T13:28:22.111Z,5.53
2018-11-01T13:30:50.675Z,6.60
2018-11-01T13:33:19.218Z,6.53
2018-11-01T13:35:47.766Z,7.67
2018-11-01T13:38:16.276Z,7.97
2018-11-01T13:40:45.371Z,8.23
2018-11-01T13:43:13.372Z,7.60
2018-11-01T13:45:41.893Z,8.60
2018-11-01T13:48:10.591Z,9.20
2018-11-01T13:50:39.037Z,9.53
2018-11-01T13:53:07.553Z,7.70
2018-11-01T13:55:36.069Z,9.00
2018-11-01T13:58:04.578Z,8.30
2018-11-01T14:00:33.121Z,8.07
2018-11-01T14:03:01.706Z,7.17
2018-11-01T14:05:30.335Z,7.30
2018-11-01T14:07:58.871Z,7.47
2018-11-01T14:10:27.391Z,8.37
2018-11-01T14:12:55.927Z,7.93
2018-11-01T14:15:24.983Z,7.90
2018-11-01T14:17:53.116Z,7.90
2018-11-01T14:20:21.656Z,7.37
2018-11-01T14:22:50.134Z,8.10
2018-11-01T14:25:18.768Z,6.67
2018-11-01T14:27:47.709Z,8.50
2018-11-01T14:30:17.054Z,7.10
2018-11-01T14:32:45.675Z,7.60
2018-11-01T14:35:14.282Z,7.53
2018-11-01T14:37:42.903Z,7.47
2018-11-01T14:40:12.681Z,7.50
2018-11-01T14:42:41.295Z,7.77
2018-11-01T14:45:10.377Z,7.00
2018-11-01T14:47:39.201Z,15.07
2018-11-01T14:50:09.093Z,24.05
2018-11-01T14:52:38.008Z,16.73
2018-11-01T14:55:08.201Z,16.97
2018-11-01T14:57:36.866Z,22.73
2018-11-01T15:00:04.245Z,10.30
2018-11-01T15:02:32.833Z,8.50
2018-11-01T15:05:01.408Z,9.93
2018-11-01T15:07:29.941Z,9.50
2018-11-01T15:09:58.461Z,9.00
2018-11-01T15:12:27.013Z,10.67
2018-11-01T15:14:55.573Z,9.50
2018-11-01T15:17:24.134Z,24.07
2018-11-01T15:19:52.704Z,10.30
2018-11-01T15:22:21.222Z,11.57
2018-11-01T15:24:49.797Z,10.47
2018-11-01T15:27:18.692Z,11.65
2018-11-01T15:29:47.303Z,11.47
2018-11-01T15:32:21.265Z,11.63
2018-11-01T15:34:49.765Z,11.67
2018-11-01T15:37:18.381Z,14.67
2018-11-01T15:39:46.951Z,14.27
2018-11-01T15:42:15.511Z,17.80
2018-11-01T15:44:44.114Z,12.47
2018-11-01T15:47:12.717Z,12.20
2018-11-01T15:49:41.395Z,11.67
2018-11-01T15:52:09.964Z,13.20
2018-11-01T15:54:38.542Z,13.50
2018-11-01T15:57:07.154Z,13.03
2018-11-01T15:59:35.785Z,12.00
2018-11-01T16:02:04.305Z,11.80
2018-11-01T16:04:32.814Z,12.50
2018-11-01T16:07:01.358Z,13.00
2018-11-01T16:09:29.964Z,14.20
2018-11-01T16:11:58.513Z,12.80
2018-11-01T16:14:27.041Z,13.80
2018-11-01T16:16:55.555Z,13.50
2018-11-01T16:19:24.207Z,14.20
2018-11-01T16:21:52.670Z,14.40
2018-11-01T16:24:21.274Z,15.23
2018-11-01T16:26:49.971Z,14.60
2018-11-01T16:29:18.478Z,14.10
2018-11-01T16:31:47.039Z,13.60
2018-11-01T16:34:15.623Z,13.90
2018-11-01T16:36:44.368Z,13.30
2018-11-01T16:39:13.297Z,13.63
2018-11-01T16:41:41.854Z,13.37
2018-11-01T16:44:11.289Z,12.70
2018-11-01T16:46:39.922Z,13.83
2018-11-01T16:49:09.321Z,12.70
2018-11-01T16:51:37.932Z,12.90
2018-11-01T16:54:06.552Z,17.30
2018-11-01T16:56:35.277Z,25.63
2018-11-01T16:59:03.863Z,128.97
2018-11-01T17:01:32.723Z,31.80
2018-11-01T17:04:01.255Z,17.00
2018-11-01T17:06:29.854Z,26.23
2018-11-01T17:08:58.466Z,19.07
2018-11-01T17:11:27.043Z,15.23
2018-11-01T17:13:56.180Z,16.80
2018-11-01T17:16:24.721Z,16.80
2018-11-01T17:18:53.263Z,15.27
2018-11-01T17:21:21.861Z,16.20
2018-11-01T17:23:50.416Z,34.97
2018-11-01T17:26:18.939Z,16.67
2018-11-01T17:28:47.496Z,18.27
2018-11-01T17:31:15.989Z,21.77
2018-11-01T17:33:44.499Z,21.03
2018-11-01T17:36:13.049Z,17.10
2018-11-01T17:38:41.622Z,22.70
2018-11-01T17:41:10.188Z,21.90
2018-11-01T17:43:38.824Z,34.33
2018-11-01T17:46:07.483Z,19.67
2018-11-01T17:48:35.903Z,21.33
2018-11-01T17:51:04.499Z,16.93
2018-11-01T17:53:33.030Z,17.87
2018-11-01T17:56:01.710Z,18.30
2018-11-01T17:58:30.209Z,19.03
2018-11-01T18:00:58.779Z,21.57
2018-11-01T18:03:27.391Z,19.27
2018-11-01T18:05:55.938Z,17.40
2018-11-01T18:08:24.584Z,17.70
2018-11-01T18:10:53.702Z,17.83
2018-11-01T18:13:22.280Z,17.60
2018-11-01T18:15:50.786Z,22.23
2018-11-01T18:18:19.938Z,22.87
2018-11-01T18:20:48.434Z,25.43
2018-11-01T18:23:17.120Z,27.40
2018-11-01T18:25:48.236Z,30.00
2018-11-01T18:28:17.446Z,31.30
2018-11-01T18:30:46.017Z,26.97
2018-11-01T18:33:14.597Z,29.23
2018-11-01T18:35:43.089Z,24.00
2018-11-01T18:38:11.642Z,27.07
2018-11-01T18:40:40.307Z,26.30
2018-11-01T18:43:08.925Z,26.07
2018-11-01T18:45:37.481Z,24.57
2018-11-01T18:48:06.397Z,31.97
2018-11-01T18:50:35.509Z,32.07
2018-11-01T18:53:04.014Z,34.13
2018-11-01T18:55:32.634Z,36.40
2018-11-01T18:58:01.330Z,25.43
2018-11-01T19:00:29.891Z,24.13
2018-11-01T19:02:59.037Z,36.17
2018-11-01T19:05:27.545Z,25.27
2018-11-01T19:07:56.114Z,25.43
2018-11-01T19:10:25.194Z,33.50
2018-11-01T19:12:54.927Z,28.53
2018-11-01T19:15:23.502Z,31.43
2018-11-01T19:17:52.376Z,31.70
2018-11-01T19:20:21.010Z,29.90
2018-11-01T19:22:49.573Z,27.70
2018-11-01T19:25:18.167Z,26.87
2018-11-01T19:27:46.772Z,27.30
2018-11-01T19:30:15.294Z,24.47
2018-11-01T19:32:43.925Z,25.03
2018-11-01T19:35:13.397Z,24.70
2018-11-01T19:37:42.628Z,27.03
2018-11-01T19:40:13.603Z,23.60
2018-11-01T19:42:42.517Z,25.90
2018-11-01T19:45:11.139Z,25.40
2018-11-01T19:47:39.821Z,24.07
2018-11-01T19:50:10.444Z,26.77
2018-11-01T19:52:39.030Z,26.90
2018-11-01T19:55:08.561Z,25.85
2018-11-01T19:57:37.178Z,26.50
2018-11-01T20:00:07.719Z,25.10
2018-11-01T20:02:36.268Z,25.30
2018-11-01T20:05:05.081Z,27.50
2018-11-01T20:07:33.582Z,26.30
2018-11-01T20:10:02.196Z,25.30
2018-11-01T20:12:30.747Z,26.10
2018-11-01T20:14:59.291Z,26.77
2018-11-01T20:17:27.863Z,25.37
2018-11-01T20:19:56.435Z,26.63
2018-11-01T20:22:25.008Z,25.17
2018-11-01T20:24:53.763Z,27.70
2018-11-01T20:27:22.387Z,27.00
2018-11-01T20:29:50.890Z,23.97
2018-11-01T20:32:19.439Z,25.33
2018-11-01T20:34:47.999Z,25.30
2018-11-01T20:37:16.494Z,25.03
2018-11-01T20:39:45.007Z,24.77
2018-11-01T20:42:13.556Z,25.33
2018-11-01T20:44:42.069Z,26.77
2018-11-01T20:47:10.633Z,25.80
2018-11-01T20:49:39.162Z,25.53
2018-11-01T20:52:07.764Z,24.93
2018-11-01T20:54:36.282Z,26.47
2018-11-01T20:57:05.234Z,27.93
2018-11-01T20:59:33.669Z,28.20
2018-11-01T21:02:02.202Z,30.20
2018-11-01T21:04:30.713Z,28.90
2018-11-01T21:08:01.789Z,28.03
2018-11-01T21:10:30.322Z,28.77
2018-11-01T21:12:58.894Z,28.70
2018-11-01T21:15:27.397Z,29.20
2018-11-01T21:17:55.883Z,28.70
2018-11-01T21:20:24.382Z,29.33
2018-11-01T21:22:52.933Z,27.30
2018-11-01T21:25:21.441Z,27.93
2018-11-01T21:27:49.989Z,27.50
2018-11-01T21:30:18.586Z,28.83
2018-11-01T21:32:47.074Z,26.90
2018-11-01T21:35:15.611Z,26.20
2018-11-01T21:37:44.049Z,26.63
2018-11-01T21:40:12.606Z,24.43
2018-11-01T21:42:41.130Z,24.53
2018-11-01T21:45:11.835Z,26.00
2018-11-01T21:47:40.456Z,26.50
2018-11-01T21:50:09.239Z,24.70
2018-11-01T21:52:37.886Z,24.50
2018-11-01T21:55:06.961Z,23.97
2018-11-01T21:57:35.613Z,25.23
2018-11-01T22:00:04.230Z,23.77
2018-11-01T22:02:32.758Z,22.80
2018-11-01T22:05:01.259Z,23.43
2018-11-01T22:07:29.825Z,23.67
2018-11-01T22:09:58.449Z,23.60
2018-11-01T22:12:26.972Z,24.07
2018-11-01T22:14:55.528Z,24.63
2018-11-01T22:17:24.065Z,23.60
2018-11-01T22:19:52.561Z,21.57
2018-11-01T22:22:21.139Z,22.57
2018-11-01T22:24:49.694Z,21.40
2018-11-01T22:27:18.252Z,22.60
2018-11-01T22:29:46.805Z,22.30
2018-11-01T22:32:15.317Z,22.70
2018-11-01T22:34:43.848Z,22.43
2018-11-01T22:37:12.429Z,22.77
2018-11-01T22:39:40.972Z,22.80
2018-11-01T22:42:09.469Z,22.23
2018-11-01T22:44:38.077Z,22.57
2018-11-01T22:47:06.988Z,22.40
2018-11-01T22:49:35.505Z,22.40
2018-11-01T22:52:04.051Z,21.70
2018-11-01T22:54:32.579Z,20.47
2018-11-01T22:57:01.173Z,20.70
2018-11-01T22:59:29.680Z,21.93
2018-11-01T23:01:58.161Z,20.33
2018-11-01T23:04:26.746Z,22.33
2018-11-01T23:06:55.346Z,20.80
2018-11-01T23:09:23.843Z,21.17
2018-11-01T23:11:52.330Z,20.60
2018-11-01T23:14:20.817Z,20.13
2018-11-01T23:16:49.315Z,21.40
2018-11-01T23:19:17.891Z,21.33
2018-11-01T23:21:46.447Z,20.57
2018-11-01T23:24:15.044Z,20.60
2018-11-01T23:26:43.616Z,19.87
2018-11-01T23:29:12.154Z,20.53
2018-11-01T23:31:40.718Z,20.93
2018-11-01T23:34:09.264Z,18.90
2018-11-01T23:36:42.862Z,18.40
2018-11-01T23:39:16.404Z,20.57
2018-11-01T23:41:50.266Z,20.70
2018-11-01T23:44:23.950Z,20.80
2018-11-01T23:46:57.617Z,21.40
2018-11-01T23:49:29.161Z,21.30
2018-11-01T23:52:01.701Z,21.90
2018-11-01T23:54:30.246Z,20.53
2018-11-01T23:56:58.894Z,20.83
2018-11-01T23:59:27.381Z,22.30
